Time;durP1;ratioP1;P1;durP2;ratioP2;P2;SDS_P1;SDS_P2;PMS_P1;PMS_P2;Temp;Humidity;BMP_temperature;BMP_pressure;BME280_temperature;BME280_humidity;BME280_pressure;Samples;Min_cycle;Max_cycle;Signal;HPM_P1;HPM_P2
2024/01/30 00:02:09;;;;;;;349.08;224.98;;;;;;;-0.80;100.00;99402.88;4989880;28;20038;-62
2024/01/30 00:04:34;;;;;;;504.00;239.80;;;;;;;-0.79;100.00;99405.53;4988784;28;20234;-62
2024/01/30 00:06:59;;;;;;;352.35;225.07;;;;;;;-0.83;100.00;99402.66;4991024;28;20034;-61
2024/01/30 00:09:25;;;;;;;406.40;234.48;;;;;;;-0.88;100.00;99410.03;4988948;28;20021;-61
2024/01/30 00:11:50;;;;;;;374.63;242.25;;;;;;;-0.94;100.00;99405.41;4988097;28;20042;-60
2024/01/30 00:14:16;;;;;;;330.92;243.60;;;;;;;-0.96;100.00;99406.97;4990669;28;20596;-60
2024/01/30 00:16:41;;;;;;;361.13;244.25;;;;;;;-0.98;100.00;99411.09;4988275;28;20073;-60
2024/01/30 00:19:08;;;;;;;377.52;229.57;;;;;;;-0.94;100.00;99415.63;4990423;28;20018;-63
2024/01/30 00:21:33;;;;;;;496.75;238.50;;;;;;;-1.00;100.00;99411.78;4988988;28;20069;-61
2024/01/30 00:23:59;;;;;;;313.33;222.40;;;;;;;-1.01;100.00;99413.44;4992215;28;20465;-61
2024/01/30 00:26:24;;;;;;;367.95;222.35;;;;;;;-1.03;100.00;99420.16;4989866;28;20048;-62
2024/01/30 00:28:49;;;;;;;335.42;220.43;;;;;;;-1.05;100.00;99416.59;4989582;28;20080;-63
2024/01/30 00:31:15;;;;;;;301.55;217.30;;;;;;;-1.04;100.00;99410.69;4989886;28;20056;-60
2024/01/30 00:33:40;;;;;;;555.75;249.27;;;;;;;-1.04;100.00;99413.25;4987442;28;20030;-61
2024/01/30 00:36:07;;;;;;;331.02;229.40;;;;;;;-1.06;100.00;99407.16;4987774;28;20034;-60
2024/01/30 00:38:33;;;;;;;486.08;226.30;;;;;;;-1.06;100.00;99410.63;4988776;28;20042;-61
2024/01/30 00:40:58;;;;;;;378.90;226.00;;;;;;;-1.05;100.00;99408.94;4988533;28;20026;-61
2024/01/30 00:43:27;;;;;;;323.13;213.57;;;;;;;-1.10;100.00;99407.75;4990289;28;20552;-60
2024/01/30 00:45:52;;;;;;;336.10;212.50;;;;;;;-1.05;100.00;99403.81;4990615;28;20038;-62
2024/01/30 00:48:18;;;;;;;338.65;204.93;;;;;;;-0.99;100.00;99406.78;4989105;28;20100;-60
2024/01/30 00:50:43;;;;;;;462.42;207.90;;;;;;;-1.02;100.00;99398.91;4987248;28;20406;-62
2024/01/30 00:53:09;;;;;;;299.08;194.13;;;;;;;-1.03;100.00;99393.72;4991587;28;20034;-62
2024/01/30 00:55:35;;;;;;;458.15;226.77;;;;;;;-1.01;100.00;99387.03;4987245;28;20038;-60
2024/01/30 00:58:00;;;;;;;324.55;207.90;;;;;;;-0.99;100.00;99390.56;5003619;28;20089;-61
2024/01/30 01:00:28;;;;;;;321.38;204.77;;;;;;;-0.98;100.00;99384.66;4988220;28;20042;-60
2024/01/30 01:02:55;;;;;;;380.02;208.35;;;;;;;-1.06;100.00;99381.63;4990748;28;20452;-64
2024/01/30 01:05:20;;;;;;;303.27;189.43;;;;;;;-1.00;100.00;99376.03;4988336;28;20030;-60
2024/01/30 01:07:47;;;;;;;362.92;199.95;;;;;;;-1.05;100.00;99375.72;4985961;28;20038;-60
2024/01/30 01:10:13;;;;;;;416.45;208.13;;;;;;;-1.07;100.00;99388.38;4985315;28;20525;-62
2024/01/30 01:12:39;;;;;;;531.20;205.77;;;;;;;-1.10;100.00;99383.09;4985319;28;20050;-61
2024/01/30 01:15:05;;;;;;;378.73;190.27;;;;;;;-1.12;100.00;99379.53;4986554;28;20040;-59
2024/01/30 01:17:31;;;;;;;450.10;194.45;;;;;;;-1.08;100.00;99383.22;4983881;28;20026;-59
2024/01/30 01:19:57;;;;;;;375.05;201.30;;;;;;;-1.12;100.00;99388.91;4985689;28;20033;-59
2024/01/30 01:22:22;;;;;;;373.30;199.93;;;;;;;-1.11;100.00;99378.75;4983011;28;20594;-60
2024/01/30 01:24:48;;;;;;;417.80;212.57;;;;;;;-1.21;100.00;99384.06;4982736;28;20117;-62
2024/01/30 01:27:13;;;;;;;328.15;212.63;;;;;;;-1.11;100.00;99378.75;4987184;28;20038;-60
2024/01/30 01:29:39;;;;;;;549.97;236.73;;;;;;;-1.03;100.00;99379.28;4982349;28;20113;-62
2024/01/30 01:32:04;;;;;;;429.80;219.98;;;;;;;-0.99;100.00;99376.13;4985703;28;20120;-61
2024/01/30 01:34:30;;;;;;;400.15;219.23;;;;;;;-0.96;100.00;99378.88;4984246;28;20026;-62
2024/01/30 01:36:55;;;;;;;385.80;217.00;;;;;;;-1.01;100.00;99380.25;4993007;28;20026;-60
2024/01/30 01:39:23;;;;;;;450.17;225.43;;;;;;;-1.06;100.00;99385.06;4987001;28;20010;-60
2024/01/30 01:41:48;;;;;;;388.70;214.18;;;;;;;-0.93;100.00;99380.75;4984127;28;20107;-61
2024/01/30 01:44:14;;;;;;;382.52;219.63;;;;;;;-0.93;100.00;99385.84;4985241;28;20022;-60
2024/01/30 01:46:39;;;;;;;512.05;236.57;;;;;;;-1.00;100.00;99376.91;4985010;28;20181;-60
2024/01/30 01:49:05;;;;;;;406.45;236.75;;;;;;;-1.01;100.00;99372.59;4986511;28;20555;-61
2024/01/30 01:51:34;;;;;;;409.90;227.35;;;;;;;-0.98;100.00;99366.78;4984034;28;20042;-60
2024/01/30 01:54:03;;;;;;;433.48;229.02;;;;;;;-1.05;100.00;99370.63;4992315;28;20129;-60
2024/01/30 01:56:29;;;;;;;399.15;219.07;;;;;;;-1.08;100.00;99376.41;4989460;28;20532;-60
2024/01/30 01:58:55;;;;;;;398.10;220.00;;;;;;;-1.07;100.00;99373.06;4989039;28;20025;-60
2024/01/30 02:01:21;;;;;;;387.05;218.43;;;;;;;-1.02;100.00;99373.38;4986171;28;20429;-59
2024/01/30 02:03:46;;;;;;;537.22;240.52;;;;;;;-0.96;100.00;99370.34;4986988;28;20030;-62
2024/01/30 02:06:16;;;;;;;412.13;239.68;;;;;;;-0.99;100.00;99378.69;4990061;28;20044;-59
2024/01/30 02:08:41;;;;;;;508.42;227.75;;;;;;;-0.90;100.00;99372.41;4987243;28;20236;-61
2024/01/30 02:11:07;;;;;;;388.58;237.75;;;;;;;-0.87;100.00;99375.16;4988835;28;20526;-59
2024/01/30 02:13:32;;;;;;;495.67;270.98;;;;;;;-0.80;100.00;99372.22;4988175;28;20079;-59
2024/01/30 02:15:58;;;;;;;407.00;233.07;;;;;;;-0.77;100.00;99372.41;4989445;28;20046;-61
2024/01/30 02:18:23;;;;;;;371.85;232.20;;;;;;;-0.80;100.00;99367.09;4991387;28;20025;-60
2024/01/30 02:20:51;;;;;;;542.00;244.60;;;;;;;-0.74;100.00;99362.38;4986575;28;20286;-60
2024/01/30 02:23:19;;;;;;;408.00;335.65;;;;;;;-0.86;100.00;99351.38;4990044;28;20271;-61
2024/01/30 02:25:45;;;;;;;500.20;247.60;;;;;;;-0.82;100.00;99355.91;4987266;28;20162;-59
2024/01/30 02:28:12;;;;;;;426.27;238.98;;;;;;;-0.71;100.00;99337.03;4988079;28;20113;-60
2024/01/30 02:30:37;;;;;;;551.08;353.38;;;;;;;-0.62;100.00;99340.94;4986775;28;20400;-61
2024/01/30 02:33:03;;;;;;;496.02;442.60;;;;;;;-0.59;100.00;99336.03;4988397;28;20221;-62
2024/01/30 02:35:28;;;;;;;564.28;472.13;;;;;;;-0.53;100.00;99329.63;4989047;28;20100;-59
2024/01/30 02:37:53;;;;;;;391.95;237.70;;;;;;;-0.41;100.00;99326.94;4987261;28;20578;-60
2024/01/30 02:40:19;;;;;;;388.25;251.80;;;;;;;-0.33;100.00;99331.66;4987072;28;20041;-61
2024/01/30 02:42:44;;;;;;;578.47;253.10;;;;;;;-0.30;100.00;99311.41;4984920;28;20451;-59
2024/01/30 02:45:10;;;;;;;378.88;247.60;;;;;;;-0.28;100.00;99320.03;4988310;28;20051;-61
2024/01/30 02:47:36;;;;;;;465.52;233.05;;;;;;;-0.23;100.00;99310.97;4987555;28;20041;-59
2024/01/30 02:50:01;;;;;;;441.08;253.85;;;;;;;-0.19;100.00;99307.81;4988435;28;20026;-61
2024/01/30 02:52:26;;;;;;;404.15;245.10;;;;;;;-0.13;100.00;99304.75;4988595;28;20038;-59
2024/01/30 02:54:52;;;;;;;405.88;236.63;;;;;;;-0.10;100.00;99320.28;4989104;28;20030;-61
2024/01/30 02:57:17;;;;;;;425.63;240.30;;;;;;;-0.17;100.00;99311.38;4987724;28;20680;-60
2024/01/30 02:59:42;;;;;;;538.30;239.30;;;;;;;-0.11;100.00;99317.63;4987756;28;20497;-60
2024/01/30 03:02:08;;;;;;;379.08;239.23;;;;;;;-0.18;100.00;99314.69;4987091;28;20509;-59
2024/01/30 03:04:33;;;;;;;429.30;240.73;;;;;;;-0.14;100.00;99315.78;4988793;28;20025;-59
2024/01/30 03:06:58;;;;;;;378.30;234.93;;;;;;;-0.12;100.00;99316.75;4986911;28;20048;-61
2024/01/30 03:09:24;;;;;;;406.60;230.70;;;;;;;-0.17;100.00;99311.38;4988881;28;20022;-62
2024/01/30 03:11:49;;;;;;;517.55;244.52;;;;;;;-0.27;100.00;99316.69;4986905;28;20137;-61
2024/01/30 03:14:14;;;;;;;416.33;225.27;;;;;;;-0.23;100.00;99328.88;4988981;28;20077;-61
2024/01/30 03:16:40;;;;;;;507.75;225.88;;;;;;;-0.18;100.00;99332.59;4993617;28;20046;-62
2024/01/30 03:19:07;;;;;;;429.50;229.73;;;;;;;-0.17;100.00;99325.81;4987853;28;20485;-61
2024/01/30 03:21:33;;;;;;;442.30;234.73;;;;;;;-0.18;100.00;99329.16;4987906;28;20056;-60
2024/01/30 03:23:59;;;;;;;384.25;233.70;;;;;;;-0.31;100.00;99328.41;4987684;28;20030;-61
2024/01/30 03:26:24;;;;;;;413.70;238.77;;;;;;;-0.40;100.00;99322.72;4987486;28;20034;-60
2024/01/30 03:28:50;;;;;;;526.42;243.90;;;;;;;-0.28;100.00;99330.28;4988318;28;20057;-61
2024/01/30 03:31:15;;;;;;;435.75;281.88;;;;;;;-0.29;100.00;99318.28;4986789;28;20030;-60
2024/01/30 03:33:41;;;;;;;531.92;256.40;;;;;;;0.01;100.00;99326.06;4986554;28;20026;-60
2024/01/30 03:36:08;;;;;;;430.45;248.98;;;;;;;-0.04;100.00;99317.22;4987194;28;20068;-61
2024/01/30 03:38:34;;;;;;;438.52;249.32;;;;;;;0.09;100.00;99314.63;4988620;28;20026;-61
2024/01/30 03:41:00;;;;;;;424.52;245.68;;;;;;;0.27;100.00;99315.59;4984611;28;20042;-62
2024/01/30 03:43:25;;;;;;;401.65;222.95;;;;;;;0.29;100.00;99317.44;4988662;28;20034;-62
2024/01/30 03:45:51;;;;;;;534.17;235.13;;;;;;;0.20;100.00;99316.91;4986184;28;20188;-60
2024/01/30 03:48:16;;;;;;;411.80;229.10;;;;;;;0.02;100.00;99319.25;4987719;28;20026;-60
2024/01/30 03:50:41;;;;;;;552.70;237.95;;;;;;;0.04;100.00;99317.69;4984541;28;20048;-62
2024/01/30 03:53:07;;;;;;;406.63;233.80;;;;;;;0.07;100.00;99313.63;4988825;28;20033;-59
2024/01/30 03:55:32;;;;;;;401.52;232.60;;;;;;;0.02;100.00;99315.03;4987388;28;20117;-60
2024/01/30 03:57:57;;;;;;;390.45;230.30;;;;;;;0.06;100.00;99316.97;4987420;28;20026;-60
2024/01/30 04:00:23;;;;;;;381.55;225.93;;;;;;;0.02;100.00;99327.81;4987285;28;20014;-62
2024/01/30 04:02:48;;;;;;;548.47;248.88;;;;;;;-0.15;100.00;99337.03;4987307;28;20038;-62
2024/01/30 04:05:13;;;;;;;404.50;238.65;;;;;;;-0.18;100.00;99334.28;4987654;28;20046;-61
2024/01/30 04:07:39;;;;;;;453.30;235.88;;;;;;;-0.26;100.00;99331.22;4984518;28;20108;-61
2024/01/30 04:10:07;;;;;;;431.70;225.70;;;;;;;-0.29;100.00;99328.50;4986479;28;20492;-55
2024/01/30 04:12:33;;;;;;;430.73;234.30;;;;;;;-0.36;100.00;99336.56;4986065;28;20530;-62
2024/01/30 04:14:58;;;;;;;408.63;233.80;;;;;;;-0.44;100.00;99339.53;4986097;28;20033;-61
2024/01/30 04:17:23;;;;;;;408.08;238.18;;;;;;;-0.59;100.00;99330.94;5000962;28;20176;-61
2024/01/30 04:19:49;;;;;;;553.33;248.15;;;;;;;-0.65;100.00;99331.41;4986485;28;20031;-60
2024/01/30 04:22:14;;;;;;;422.17;240.45;;;;;;;-0.64;100.00;99338.28;4985255;28;20065;-59
2024/01/30 04:24:39;;;;;;;443.33;249.20;;;;;;;-0.66;100.00;99330.53;4984977;28;20037;-63
2024/01/30 04:27:05;;;;;;;442.15;250.30;;;;;;;-0.64;100.00;99329.75;4987265;28;20034;-62
2024/01/30 04:29:32;;;;;;;439.45;256.15;;;;;;;-0.64;100.00;99327.19;4986658;28;20022;-63
2024/01/30 04:31:57;;;;;;;531.97;272.83;;;;;;;-0.64;100.00;99319.53;4985563;28;20057;-62
2024/01/30 04:34:22;;;;;;;429.75;262.25;;;;;;;-0.65;100.00;99326.31;4986868;28;20030;-60
2024/01/30 04:36:48;;;;;;;506.15;270.73;;;;;;;-0.74;100.00;99328.28;4986432;28;20136;-59
2024/01/30 04:39:13;;;;;;;451.40;249.90;;;;;;;-0.80;100.00;99332.22;4986672;28;20027;-63
2024/01/30 04:41:38;;;;;;;447.35;253.50;;;;;;;-0.85;100.00;99337.81;4987091;28;20073;-62
2024/01/30 04:44:04;;;;;;;388.27;253.95;;;;;;;-0.83;100.00;99331.13;4985465;28;20307;-63
2024/01/30 04:46:29;;;;;;;426.33;254.63;;;;;;;-0.87;100.00;99341.94;4987558;28;20411;-60
2024/01/30 04:48:54;;;;;;;558.25;257.55;;;;;;;-0.88;100.00;99340.16;4985798;28;20037;-62
2024/01/30 04:51:20;;;;;;;415.17;249.35;;;;;;;-0.97;100.00;99348.16;4985441;28;20838;-60
2024/01/30 04:53:45;;;;;;;471.60;239.65;;;;;;;-0.98;100.00;99348.91;4987687;28;20091;-61
2024/01/30 04:56:10;;;;;;;413.17;248.20;;;;;;;-0.96;100.00;99352.47;4987746;28;20105;-60
2024/01/30 04:58:36;;;;;;;434.15;255.07;;;;;;;-1.02;100.00;99355.50;4986932;28;20053;-60
2024/01/30 05:01:02;;;;;;;418.05;246.73;;;;;;;-0.98;100.00;99359.13;4983848;28;20094;-61
2024/01/30 05:03:27;;;;;;;417.60;242.43;;;;;;;-1.11;100.00;99365.97;4986845;28;20442;-62
2024/01/30 05:05:53;;;;;;;532.30;252.25;;;;;;;-1.10;100.00;99360.13;4984620;28;20039;-60
2024/01/30 05:08:18;;;;;;;405.75;248.65;;;;;;;-1.04;100.00;99367.25;4988696;28;20109;-60
2024/01/30 05:10:44;;;;;;;468.33;252.80;;;;;;;-1.12;100.00;99363.34;4984467;28;20046;-63
2024/01/30 05:13:09;;;;;;;413.70;250.50;;;;;;;-1.12;100.00;99359.13;4986914;28;20057;-59
2024/01/30 05:15:35;;;;;;;424.45;253.32;;;;;;;-1.09;100.00;99366.09;4984369;28;20053;-62
2024/01/30 05:18:00;;;;;;;414.98;258.52;;;;;;;-1.18;100.00;99364.69;4983210;28;20030;-60
2024/01/30 05:20:27;;;;;;;455.58;254.23;;;;;;;-1.13;100.00;99364.13;4984445;28;20034;-62
2024/01/30 05:22:53;;;;;;;531.25;260.88;;;;;;;-1.10;100.00;99367.78;4985390;28;20029;-60
2024/01/30 05:25:18;;;;;;;419.67;253.55;;;;;;;-1.11;100.00;99367.69;4985785;28;20026;-60
2024/01/30 05:27:44;;;;;;;433.95;256.50;;;;;;;-1.08;100.00;99362.78;4984106;28;20365;-62
2024/01/30 05:30:10;;;;;;;451.95;259.92;;;;;;;-1.08;100.00;99368.75;4982822;28;20026;-60
2024/01/30 05:32:35;;;;;;;453.23;255.93;;;;;;;-1.11;100.00;99372.78;4985006;28;20038;-61
2024/01/30 05:35:01;;;;;;;544.58;263.10;;;;;;;-1.09;100.00;99360.97;4986633;28;20474;-61
2024/01/30 05:37:26;;;;;;;415.55;261.45;;;;;;;-1.10;100.00;99367.78;4986845;28;20038;-60
2024/01/30 05:39:51;;;;;;;551.53;272.08;;;;;;;-1.14;100.00;99373.47;4985513;28;20034;-60
2024/01/30 05:42:17;;;;;;;425.67;274.05;;;;;;;-1.15;100.00;99378.47;4986123;28;20152;-59
2024/01/30 05:44:42;;;;;;;418.77;267.90;;;;;;;-1.15;100.00;99378.47;4986019;28;20574;-62
2024/01/30 05:47:08;;;;;;;417.85;267.17;;;;;;;-1.13;100.00;99375.22;4984496;28;20049;-59
2024/01/30 05:49:34;;;;;;;470.90;264.10;;;;;;;-1.12;100.00;99378.69;4985506;28;20025;-60
2024/01/30 05:52:00;;;;;;;544.72;280.35;;;;;;;-1.16;100.00;99380.13;4986349;28;20216;-61
2024/01/30 05:54:25;;;;;;;421.85;273.50;;;;;;;-1.16;100.00;99379.25;4986961;28;20112;-61
2024/01/30 05:56:50;;;;;;;579.13;283.50;;;;;;;-1.14;100.00;99390.44;4984077;28;20099;-62
2024/01/30 05:59:16;;;;;;;453.95;275.70;;;;;;;-1.21;100.00;99387.50;4987446;28;20385;-61
2024/01/30 06:01:46;;;;;;;428.60;279.30;;;;;;;-1.21;100.00;99379.84;4984556;28;20105;-62
2024/01/30 06:04:12;;;;;;;453.17;279.45;;;;;;;-1.11;100.00;99381.31;4987349;28;20018;-61
2024/01/30 06:06:37;;;;;;;440.20;268.63;;;;;;;-1.01;100.00;99387.03;4985316;28;20030;-59
2024/01/30 06:09:02;;;;;;;553.45;286.85;;;;;;;-0.97;100.00;99378.78;4985823;28;20040;-60
2024/01/30 06:11:28;;;;;;;469.23;271.98;;;;;;;-0.96;100.00;99380.56;4985603;28;20050;-60
2024/01/30 06:13:53;;;;;;;522.70;276.38;;;;;;;-0.87;100.00;99391.38;4984747;28;20092;-60
2024/01/30 06:16:20;;;;;;;405.67;265.65;;;;;;;-0.66;100.00;99384.19;4987435;28;20921;-60
2024/01/30 06:18:46;;;;;;;438.52;266.13;;;;;;;-0.73;100.00;99393.94;4985486;28;20545;-61
2024/01/30 06:21:11;;;;;;;427.25;265.70;;;;;;;-0.99;100.00;99391.47;4986227;28;20047;-61
2024/01/30 06:23:36;;;;;;;458.13;275.83;;;;;;;-1.02;100.00;99390.34;4985020;28;20029;-62
2024/01/30 06:26:02;;;;;;;563.47;279.65;;;;;;;-1.13;100.00;99388.00;4985862;28;20077;-61
2024/01/30 06:28:27;;;;;;;429.33;268.15;;;;;;;-1.17;100.00;99391.13;4984798;28;20050;-62
2024/01/30 06:30:53;;;;;;;542.45;286.35;;;;;;;-1.19;100.00;99390.13;4983591;28;20533;-60
2024/01/30 06:34:01;;;;;;;557.72;284.52;;;;;;;-1.17;100.00;99391.13;5040524;28;20784;-61
2024/01/30 06:36:26;;;;;;;449.13;278.58;;;;;;;-1.15;100.00;99379.34;5047556;28;20071;-62
2024/01/30 06:38:52;;;;;;;565.83;292.92;;;;;;;-1.00;100.00;99383.69;5051423;28;20021;-61
2024/01/30 06:41:17;;;;;;;450.67;285.23;;;;;;;-0.88;100.00;99387.06;5052228;28;20048;-64
2024/01/30 06:43:45;;;;;;;429.42;283.38;;;;;;;-0.80;100.00;99384.97;5053205;28;20017;-60
2024/01/30 06:46:10;;;;;;;423.52;272.20;;;;;;;-0.78;100.00;99388.50;5051006;28;20149;-63
2024/01/30 06:48:35;;;;;;;462.10;280.67;;;;;;;-0.74;100.00;99387.06;5053397;28;20109;-61
2024/01/30 06:51:00;;;;;;;515.38;276.23;;;;;;;-0.61;100.00;99389.59;5050913;28;20076;-61
2024/01/30 06:53:26;;;;;;;416.35;271.55;;;;;;;-0.56;100.00;99395.88;5053822;28;20105;-63
2024/01/30 06:55:52;;;;;;;523.67;286.42;;;;;;;-0.55;100.00;99396.78;5050796;28;20045;-62
2024/01/30 06:58:17;;;;;;;445.48;276.52;;;;;;;-0.50;100.00;99391.94;5052466;28;20068;-63
2024/01/30 07:00:42;;;;;;;438.70;279.80;;;;;;;-0.31;100.00;99389.78;5052499;28;20044;-61
2024/01/30 07:03:07;;;;;;;441.00;283.70;;;;;;;-0.21;100.00;99392.91;5050550;28;20028;-60
2024/01/30 07:05:33;;;;;;;428.50;273.50;;;;;;;-0.14;100.00;99388.25;5051876;28;20642;-63
2024/01/30 07:07:58;;;;;;;487.30;277.65;;;;;;;0.07;100.00;99387.81;5051015;28;20028;-62
2024/01/30 07:10:23;;;;;;;413.55;265.40;;;;;;;0.19;100.00;99389.38;5051887;28;20428;-63
2024/01/30 07:12:49;;;;;;;478.30;273.67;;;;;;;0.35;100.00;99394.63;5050685;28;20063;-62
2024/01/30 07:15:17;;;;;;;398.20;257.35;;;;;;;0.50;100.00;99394.66;5053013;28;20187;-62
2024/01/30 07:17:42;;;;;;;456.10;268.35;;;;;;;0.66;100.00;99394.69;5054013;28;20055;-61
2024/01/30 07:20:09;;;;;;;490.30;273.88;;;;;;;0.81;100.00;99393.00;5052336;28;20408;-61
2024/01/30 07:22:34;;;;;;;445.73;271.17;;;;;;;1.07;100.00;99385.94;5053687;28;20029;-62
2024/01/30 07:24:59;;;;;;;461.15;288.52;;;;;;;1.43;100.00;99393.97;5053339;28;20041;-60
2024/01/30 07:27:25;;;;;;;473.85;274.73;;;;;;;1.99;100.00;99396.09;5051582;28;20032;-60
2024/01/30 07:29:50;;;;;;;449.63;283.33;;;;;;;2.70;100.00;99398.91;5052057;28;20170;-62
2024/01/30 07:32:15;;;;;;;441.58;285.67;;;;;;;2.82;100.00;99392.63;5052927;28;20039;-61
2024/01/30 07:34:41;;;;;;;488.33;285.88;;;;;;;4.07;100.00;99393.34;5053790;28;20469;-63
2024/01/30 07:37:08;;;;;;;516.55;297.80;;;;;;;4.04;100.00;99392.41;5052882;28;20127;-61
2024/01/30 07:39:33;;;;;;;498.90;308.50;;;;;;;3.18;100.00;99396.94;5053367;28;20072;-63
2024/01/30 07:41:59;;;;;;;520.75;306.35;;;;;;;2.88;100.00;99395.50;5052010;28;20060;-61
2024/01/30 07:44:24;;;;;;;484.98;310.50;;;;;;;2.80;100.00;99394.22;5045972;28;20056;-61
2024/01/30 07:46:50;;;;;;;482.38;294.42;;;;;;;3.16;100.00;99394.31;5039048;28;20860;-63
2024/01/30 07:49:15;;;;;;;538.50;309.23;;;;;;;3.53;100.00;99389.16;5039797;28;20051;-62
2024/01/30 07:51:40;;;;;;;514.97;315.30;;;;;;;3.49;100.00;99395.88;5039108;28;20316;-60
2024/01/30 07:54:06;;;;;;;539.50;325.38;;;;;;;3.88;100.00;99402.81;5040316;28;20055;-61
2024/01/30 07:56:31;;;;;;;517.85;310.23;;;;;;;4.40;100.00;99399.16;5040016;28;20036;-61
2024/01/30 07:58:56;;;;;;;561.95;326.67;;;;;;;5.02;100.00;99395.75;5037841;28;20033;-62
2024/01/30 08:01:22;;;;;;;503.77;326.13;;;;;;;5.12;100.00;99401.28;5037995;28;20037;-62
2024/01/30 08:03:47;;;;;;;528.92;334.95;;;;;;;4.84;100.00;99406.16;5039503;28;20115;-62
2024/01/30 08:06:12;;;;;;;556.47;343.63;;;;;;;3.98;100.00;99406.69;5038546;28;20127;-62
2024/01/30 08:08:38;;;;;;;547.22;342.80;;;;;;;4.16;100.00;99397.22;5039303;28;20107;-62
2024/01/30 08:11:03;;;;;;;554.92;337.33;;;;;;;3.76;100.00;99410.84;5037723;28;20055;-62
2024/01/30 08:13:28;;;;;;;534.88;286.45;;;;;;;3.91;100.00;99410.69;5039792;28;20734;-61
2024/01/30 08:15:54;;;;;;;541.70;295.08;;;;;;;3.95;100.00;99409.13;5037705;28;20044;-63
2024/01/30 08:18:19;;;;;;;485.33;288.50;;;;;;;3.91;100.00;99408.09;5039431;28;20032;-62
2024/01/30 08:20:44;;;;;;;520.95;289.67;;;;;;;3.81;100.00;99405.91;5038365;28;20048;-63
2024/01/30 08:23:10;;;;;;;507.08;286.40;;;;;;;3.91;100.00;99411.53;5037957;28;20028;-63
2024/01/30 08:25:36;;;;;;;536.47;298.98;;;;;;;3.17;100.00;99408.94;5039741;28;20044;-62
2024/01/30 08:28:01;;;;;;;574.70;297.50;;;;;;;3.28;100.00;99408.56;5037798;28;20537;-62
2024/01/30 08:30:27;;;;;;;527.30;301.98;;;;;;;3.54;100.00;99414.09;5038214;28;20036;-60
2024/01/30 08:32:52;;;;;;;504.08;286.80;;;;;;;3.49;100.00;99404.44;5038640;28;20036;-61
2024/01/30 08:35:18;;;;;;;539.97;298.73;;;;;;;3.87;100.00;99407.06;5038779;28;20071;-62
2024/01/30 08:37:43;;;;;;;526.63;305.02;;;;;;;3.87;100.00;99411.34;5037824;28;20016;-62
2024/01/30 08:40:08;;;;;;;573.53;311.77;;;;;;;3.86;100.00;99407.03;5036496;28;20191;-62
2024/01/30 08:42:34;;;;;;;544.28;324.10;;;;;;;3.99;100.00;99401.63;5039374;28;20606;-62
2024/01/30 08:44:59;;;;;;;558.35;318.77;;;;;;;4.07;100.00;99396.81;5038398;28;20115;-62
2024/01/30 08:47:25;;;;;;;529.47;312.73;;;;;;;4.40;100.00;99406.88;5037827;28;20578;-61
2024/01/30 08:49:50;;;;;;;532.10;302.92;;;;;;;4.20;100.00;99410.25;5037460;28;20032;-64
2024/01/30 08:52:16;;;;;;;516.83;313.95;;;;;;;4.40;100.00;99403.41;5037115;28;20130;-62
2024/01/30 08:54:41;;;;;;;552.45;309.45;;;;;;;4.26;100.00;99406.25;5038297;28;20028;-63
2024/01/30 08:57:06;;;;;;;525.58;306.42;;;;;;;4.47;100.00;99405.44;5036275;28;20051;-63
2024/01/30 08:59:32;;;;;;;552.13;307.83;;;;;;;4.50;100.00;99402.13;5037473;28;20023;-61
2024/01/30 09:01:59;;;;;;;570.08;296.45;;;;;;;4.42;100.00;99402.66;5030887;28;20136;-62
2024/01/30 09:04:24;;;;;;;446.42;272.08;;;;;;;4.66;100.00;99399.41;5039619;28;20025;-61
2024/01/30 09:06:50;;;;;;;452.15;281.92;;;;;;;4.71;100.00;99403.88;5041147;28;20041;-63
2024/01/30 09:09:15;;;;;;;518.80;287.98;;;;;;;5.29;100.00;99397.69;5042436;28;20021;-62
2024/01/30 09:11:40;;;;;;;467.08;278.60;;;;;;;4.92;100.00;99404.78;5041067;28;20296;-61
2024/01/30 09:14:06;;;;;;;536.92;286.08;;;;;;;5.58;100.00;99400.56;5041497;28;20054;-63
2024/01/30 09:16:31;;;;;;;483.38;282.52;;;;;;;4.95;100.00;99404.03;5041944;28;20048;-61
2024/01/30 09:18:57;;;;;;;504.42;275.27;;;;;;;5.21;100.00;99401.66;5040980;28;20016;-61
2024/01/30 09:21:22;;;;;;;477.02;271.65;;;;;;;5.03;100.00;99417.25;5041369;28;20025;-61
2024/01/30 09:23:48;;;;;;;473.75;274.20;;;;;;;4.75;100.00;99416.09;5042088;28;20037;-60
2024/01/30 09:26:13;;;;;;;442.65;256.67;;;;;;;5.37;100.00;99416.06;5040698;28;20120;-62
2024/01/30 09:28:39;;;;;;;503.90;269.25;;;;;;;5.81;100.00;99403.16;5041357;28;20200;-62
2024/01/30 09:31:04;;;;;;;471.23;278.50;;;;;;;6.31;100.00;99396.41;5039891;28;20037;-61
2024/01/30 09:33:29;;;;;;;476.73;279.00;;;;;;;6.01;100.00;99392.69;5041724;28;20086;-63
2024/01/30 09:35:55;;;;;;;515.72;274.70;;;;;;;6.56;100.00;99395.56;5039967;28;20037;-60
2024/01/30 09:38:20;;;;;;;456.17;254.00;;;;;;;6.40;100.00;99396.75;5041297;28;20100;-62
2024/01/30 09:40:53;;;;;;;475.00;256.88;;;;;;;6.50;100.00;99395.38;5040774;28;20068;-62
2024/01/30 09:43:22;;;;;;;492.38;272.70;;;;;;;6.47;100.00;99395.25;5040734;28;20062;-62
2024/01/30 09:45:49;;;;;;;489.70;268.52;;;;;;;6.79;100.00;99397.22;5040664;28;20090;-63
2024/01/30 09:48:15;;;;;;;478.95;281.00;;;;;;;6.92;100.00;99396.81;5040882;28;20094;-63
2024/01/30 09:50:41;;;;;;;514.45;273.25;;;;;;;7.53;100.00;99391.00;5040374;28;20033;-63
2024/01/30 09:53:08;;;;;;;542.47;267.92;;;;;;;7.56;100.00;99388.50;5040911;28;20025;-61
2024/01/30 09:55:35;;;;;;;489.08;275.33;;;;;;;7.73;100.00;99399.41;5040295;28;20029;-61
2024/01/30 09:58:01;;;;;;;492.45;255.35;;;;;;;7.37;100.00;99395.69;5040400;28;20017;-61
2024/01/30 10:00:27;;;;;;;475.30;255.15;;;;;;;7.98;100.00;99384.59;5040362;28;20037;-62
2024/01/30 10:02:53;;;;;;;498.60;269.92;;;;;;;6.20;100.00;99396.00;5040900;28;20033;-61
2024/01/30 10:05:19;;;;;;;461.83;266.45;;;;;;;5.99;100.00;99392.63;5040351;28;20475;-62
2024/01/30 10:07:58;;;;;;;473.02;262.63;;;;;;;6.04;100.00;99398.00;5041202;28;20040;-59
2024/01/30 10:10:23;;;;;;;480.48;252.98;;;;;;;5.64;100.00;99401.63;5039317;28;20066;-59
2024/01/30 10:12:49;;;;;;;459.73;253.80;;;;;;;6.03;100.00;99393.69;5040723;28;20049;-60
2024/01/30 10:15:14;;;;;;;469.80;239.77;;;;;;;5.96;100.00;99394.22;5039776;28;20029;-62
2024/01/30 10:17:40;;;;;;;461.00;227.68;;;;;;;6.22;100.00;99390.09;5040852;28;20020;-61
2024/01/30 10:20:06;;;;;;;532.65;241.70;;;;;;;6.15;100.00;99389.78;5038998;28;20021;-62
2024/01/30 10:22:32;;;;;;;471.58;266.30;;;;;;;6.23;100.00;99388.34;5041202;28;20484;-63
2024/01/30 10:24:58;;;;;;;497.13;251.75;;;;;;;6.33;100.00;99384.41;5039403;28;20033;-60
2024/01/30 10:27:27;;;;;;;449.10;240.02;;;;;;;6.53;100.00;99385.13;5040135;28;20075;-61
2024/01/30 10:29:52;;;;;;;469.58;241.77;;;;;;;6.68;100.00;99382.19;5041086;28;20056;-62
2024/01/30 10:32:19;;;;;;;481.30;241.13;;;;;;;7.39;100.00;99382.81;5038473;28;20037;-62
2024/01/30 10:34:45;;;;;;;447.92;219.95;;;;;;;7.91;100.00;99380.06;5040674;28;20025;-63
2024/01/30 10:37:17;;;;;;;504.48;223.18;;;;;;;8.32;100.00;99379.53;5039303;28;20432;-64
2024/01/30 10:39:44;;;;;;;452.23;217.35;;;;;;;8.58;100.00;99382.00;5039287;28;20021;-60
2024/01/30 10:42:14;;;;;;;525.65;231.85;;;;;;;8.40;100.00;99372.84;5037564;28;20036;-63
2024/01/30 10:45:04;;;;;;;535.85;244.38;;;;;;;8.62;100.00;99380.34;5038907;28;20025;-63
2024/01/30 10:47:30;;;;;;;497.35;235.70;;;;;;;8.61;100.00;99376.00;5039438;28;20021;-61
2024/01/30 10:49:56;;;;;;;507.65;245.18;;;;;;;9.04;100.00;99384.00;5040170;28;20025;-61
2024/01/30 10:52:25;;;;;;;489.20;240.48;;;;;;;9.09;100.00;99375.50;5039366;28;20033;-62